sensor_id;sensor_type;location;lat;lon;timestamp;P1;durP1;ratioP1;P2;durP2;ratioP2
69890;SDS011;57170;43.964;21.262;2022-09-09T00:00:23;19.98;;;14.05;;
69890;SDS011;57170;43.964;21.262;2022-09-09T00:05:23;15.63;;;12.27;;
69890;SDS011;57170;43.964;21.262;2022-09-09T00:07:53;22.15;;;13.00;;
69890;SDS011;57170;43.964;21.262;2022-09-09T00:15:23;20.77;;;12.68;;
69890;SDS011;57170;43.964;21.262;2022-09-09T00:18:03;17.23;;;12.20;;
69890;SDS011;57170;43.964;21.262;2022-09-09T00:20:48;20.67;;;11.35;;
69890;SDS011;57170;43.964;21.262;2022-09-09T00:28:35;18.92;;;11.55;;
69890;SDS011;57170;43.964;21.262;2022-09-09T00:31:11;18.13;;;11.90;;
69890;SDS011;57170;43.964;21.262;2022-09-09T00:33:37;16.55;;;12.98;;
69890;SDS011;57170;43.964;21.262;2022-09-09T00:36:04;16.90;;;11.82;;
69890;SDS011;57170;43.964;21.262;2022-09-09T00:38:39;15.07;;;12.00;;
69890;SDS011;57170;43.964;21.262;2022-09-09T00:43:37;16.95;;;13.43;;
69890;SDS011;57170;43.964;21.262;2022-09-09T00:46:06;19.77;;;13.50;;
69890;SDS011;57170;43.964;21.262;2022-09-09T00:48:38;18.58;;;12.80;;
69890;SDS011;57170;43.964;21.262;2022-09-09T00:51:14;16.60;;;11.80;;
69890;SDS011;57170;43.964;21.262;2022-09-09T00:58:34;19.27;;;13.50;;
69890;SDS011;57170;43.964;21.262;2022-09-09T01:01:09;16.90;;;12.40;;
69890;SDS011;57170;43.964;21.262;2022-09-09T01:03:45;19.20;;;13.07;;
69890;SDS011;57170;43.964;21.262;2022-09-09T01:11:28;17.42;;;12.02;;
69890;SDS011;57170;43.964;21.262;2022-09-09T01:14:02;17.02;;;12.40;;
69890;SDS011;57170;43.964;21.262;2022-09-09T01:16:29;16.35;;;12.98;;
69890;SDS011;57170;43.964;21.262;2022-09-09T01:18:57;16.17;;;13.15;;
69890;SDS011;57170;43.964;21.262;2022-09-09T01:26:41;17.10;;;13.27;;
69890;SDS011;57170;43.964;21.262;2022-09-09T01:29:09;21.67;;;13.45;;
69890;SDS011;57170;43.964;21.262;2022-09-09T01:31:37;17.40;;;12.73;;
69890;SDS011;57170;43.964;21.262;2022-09-09T01:34:11;21.08;;;12.20;;
69890;SDS011;57170;43.964;21.262;2022-09-09T01:36:39;17.30;;;12.60;;
69890;SDS011;57170;43.964;21.262;2022-09-09T01:39:06;18.10;;;13.73;;
69890;SDS011;57170;43.964;21.262;2022-09-09T01:41:32;17.17;;;11.25;;
69890;SDS011;57170;43.964;21.262;2022-09-09T01:43:59;15.65;;;11.63;;
69890;SDS011;57170;43.964;21.262;2022-09-09T01:46:25;17.15;;;11.50;;
69890;SDS011;57170;43.964;21.262;2022-09-09T01:48:51;21.15;;;13.68;;
69890;SDS011;57170;43.964;21.262;2022-09-09T01:51:18;19.75;;;11.60;;
69890;SDS011;57170;43.964;21.262;2022-09-09T01:53:45;20.58;;;12.52;;
69890;SDS011;57170;43.964;21.262;2022-09-09T01:58:47;16.45;;;11.98;;
69890;SDS011;57170;43.964;21.262;2022-09-09T02:03:44;18.98;;;12.50;;
69890;SDS011;57170;43.964;21.262;2022-09-09T02:06:28;16.80;;;11.82;;
69890;SDS011;57170;43.964;21.262;2022-09-09T02:08:56;22.27;;;12.85;;
69890;SDS011;57170;43.964;21.262;2022-09-09T02:11:25;27.25;;;15.18;;
69890;SDS011;57170;43.964;21.262;2022-09-09T02:13:53;18.63;;;11.77;;
69890;SDS011;57170;43.964;21.262;2022-09-09T02:16:27;20.58;;;13.43;;
69890;SDS011;57170;43.964;21.262;2022-09-09T02:19:06;19.48;;;11.68;;
69890;SDS011;57170;43.964;21.262;2022-09-09T02:21:34;17.83;;;12.52;;
69890;SDS011;57170;43.964;21.262;2022-09-09T02:24:02;15.98;;;11.40;;
69890;SDS011;57170;43.964;21.262;2022-09-09T02:26:29;22.40;;;14.18;;
69890;SDS011;57170;43.964;21.262;2022-09-09T02:28:57;20.13;;;13.45;;
69890;SDS011;57170;43.964;21.262;2022-09-09T02:31:24;20.42;;;12.73;;
69890;SDS011;57170;43.964;21.262;2022-09-09T02:33:52;22.65;;;12.18;;
69890;SDS011;57170;43.964;21.262;2022-09-09T02:36:20;19.73;;;12.75;;
69890;SDS011;57170;43.964;21.262;2022-09-09T02:38:49;18.95;;;12.48;;
69890;SDS011;57170;43.964;21.262;2022-09-09T02:41:22;22.42;;;13.52;;
69890;SDS011;57170;43.964;21.262;2022-09-09T02:43:50;20.42;;;12.82;;
69890;SDS011;57170;43.964;21.262;2022-09-09T02:49:02;19.02;;;12.27;;
69890;SDS011;57170;43.964;21.262;2022-09-09T02:54:34;18.05;;;12.82;;
69890;SDS011;57170;43.964;21.262;2022-09-09T02:57:21;24.90;;;13.93;;
69890;SDS011;57170;43.964;21.262;2022-09-09T02:59:48;21.73;;;12.80;;
69890;SDS011;57170;43.964;21.262;2022-09-09T03:02:14;21.30;;;13.40;;
69890;SDS011;57170;43.964;21.262;2022-09-09T03:04:40;17.50;;;12.27;;
69890;SDS011;57170;43.964;21.262;2022-09-09T03:07:09;19.95;;;12.73;;
69890;SDS011;57170;43.964;21.262;2022-09-09T03:09:35;15.02;;;12.00;;
69890;SDS011;57170;43.964;21.262;2022-09-09T03:12:01;17.63;;;12.77;;
69890;SDS011;57170;43.964;21.262;2022-09-09T03:14:29;17.40;;;12.02;;
69890;SDS011;57170;43.964;21.262;2022-09-09T03:16:56;17.58;;;11.43;;
69890;SDS011;57170;43.964;21.262;2022-09-09T03:19:25;15.60;;;12.07;;
69890;SDS011;57170;43.964;21.262;2022-09-09T03:21:52;21.00;;;14.07;;
69890;SDS011;57170;43.964;21.262;2022-09-09T03:24:19;17.58;;;12.90;;
69890;SDS011;57170;43.964;21.262;2022-09-09T03:26:46;19.20;;;12.73;;
69890;SDS011;57170;43.964;21.262;2022-09-09T03:29:12;14.63;;;11.52;;
69890;SDS011;57170;43.964;21.262;2022-09-09T03:31:39;18.65;;;12.25;;
69890;SDS011;57170;43.964;21.262;2022-09-09T03:34:07;17.17;;;12.18;;
69890;SDS011;57170;43.964;21.262;2022-09-09T03:36:33;18.20;;;13.00;;
69890;SDS011;57170;43.964;21.262;2022-09-09T03:38:59;15.00;;;12.18;;
69890;SDS011;57170;43.964;21.262;2022-09-09T03:41:27;23.13;;;13.60;;
69890;SDS011;57170;43.964;21.262;2022-09-09T03:43:54;19.33;;;13.38;;
69890;SDS011;57170;43.964;21.262;2022-09-09T03:46:20;19.17;;;12.10;;
69890;SDS011;57170;43.964;21.262;2022-09-09T03:48:47;22.02;;;12.27;;
69890;SDS011;57170;43.964;21.262;2022-09-09T03:51:13;19.95;;;12.77;;
69890;SDS011;57170;43.964;21.262;2022-09-09T03:53:40;25.80;;;12.73;;
69890;SDS011;57170;43.964;21.262;2022-09-09T03:56:06;19.08;;;14.05;;
69890;SDS011;57170;43.964;21.262;2022-09-09T03:58:36;14.32;;;11.75;;
69890;SDS011;57170;43.964;21.262;2022-09-09T04:01:03;18.15;;;12.30;;
69890;SDS011;57170;43.964;21.262;2022-09-09T04:03:30;21.65;;;13.45;;
69890;SDS011;57170;43.964;21.262;2022-09-09T04:05:57;17.58;;;13.18;;
69890;SDS011;57170;43.964;21.262;2022-09-09T04:08:23;18.33;;;12.55;;
69890;SDS011;57170;43.964;21.262;2022-09-09T04:10:53;19.05;;;12.55;;
69890;SDS011;57170;43.964;21.262;2022-09-09T04:13:23;21.83;;;13.18;;
69890;SDS011;57170;43.964;21.262;2022-09-09T04:15:53;18.58;;;11.55;;
69890;SDS011;57170;43.964;21.262;2022-09-09T04:18:19;17.95;;;12.48;;
69890;SDS011;57170;43.964;21.262;2022-09-09T04:20:46;18.75;;;11.95;;
69890;SDS011;57170;43.964;21.262;2022-09-09T04:23:13;21.00;;;12.90;;
69890;SDS011;57170;43.964;21.262;2022-09-09T04:25:43;18.92;;;13.55;;
69890;SDS011;57170;43.964;21.262;2022-09-09T04:28:09;18.23;;;13.93;;
69890;SDS011;57170;43.964;21.262;2022-09-09T04:30:36;27.85;;;15.25;;
69890;SDS011;57170;43.964;21.262;2022-09-09T04:33:04;21.38;;;13.90;;
69890;SDS011;57170;43.964;21.262;2022-09-09T04:35:31;22.08;;;13.30;;
69890;SDS011;57170;43.964;21.262;2022-09-09T04:37:58;20.23;;;13.00;;
69890;SDS011;57170;43.964;21.262;2022-09-09T04:40:24;16.75;;;14.23;;
69890;SDS011;57170;43.964;21.262;2022-09-09T04:42:50;18.00;;;14.38;;
69890;SDS011;57170;43.964;21.262;2022-09-09T04:45:16;18.42;;;13.60;;
69890;SDS011;57170;43.964;21.262;2022-09-09T04:47:43;21.27;;;12.30;;
69890;SDS011;57170;43.964;21.262;2022-09-09T04:50:09;24.63;;;13.05;;
69890;SDS011;57170;43.964;21.262;2022-09-09T04:52:37;15.07;;;11.80;;
69890;SDS011;57170;43.964;21.262;2022-09-09T04:55:03;19.63;;;12.77;;
69890;SDS011;57170;43.964;21.262;2022-09-09T04:57:29;23.10;;;13.10;;
69890;SDS011;57170;43.964;21.262;2022-09-09T04:59:57;16.67;;;12.95;;
69890;SDS011;57170;43.964;21.262;2022-09-09T05:02:24;16.25;;;12.27;;
69890;SDS011;57170;43.964;21.262;2022-09-09T05:04:50;16.23;;;12.00;;
69890;SDS011;57170;43.964;21.262;2022-09-09T05:07:16;18.00;;;12.80;;
69890;SDS011;57170;43.964;21.262;2022-09-09T05:09:42;19.08;;;14.10;;
69890;SDS011;57170;43.964;21.262;2022-09-09T05:12:10;15.63;;;11.70;;
69890;SDS011;57170;43.964;21.262;2022-09-09T05:14:36;17.38;;;13.50;;
69890;SDS011;57170;43.964;21.262;2022-09-09T05:17:03;16.67;;;12.45;;
69890;SDS011;57170;43.964;21.262;2022-09-09T05:19:29;18.05;;;13.40;;
69890;SDS011;57170;43.964;21.262;2022-09-09T05:21:56;15.60;;;12.35;;
69890;SDS011;57170;43.964;21.262;2022-09-09T05:24:22;25.20;;;12.43;;
69890;SDS011;57170;43.964;21.262;2022-09-09T05:26:48;18.33;;;12.57;;
69890;SDS011;57170;43.964;21.262;2022-09-09T05:29:14;20.40;;;13.93;;
69890;SDS011;57170;43.964;21.262;2022-09-09T05:31:44;25.08;;;14.05;;
69890;SDS011;57170;43.964;21.262;2022-09-09T05:34:10;19.67;;;13.95;;
69890;SDS011;57170;43.964;21.262;2022-09-09T05:36:36;17.90;;;12.68;;
69890;SDS011;57170;43.964;21.262;2022-09-09T05:39:03;17.35;;;13.88;;
69890;SDS011;57170;43.964;21.262;2022-09-09T05:41:29;21.95;;;13.73;;
69890;SDS011;57170;43.964;21.262;2022-09-09T05:43:56;20.73;;;14.75;;
69890;SDS011;57170;43.964;21.262;2022-09-09T05:46:26;16.95;;;12.68;;
69890;SDS011;57170;43.964;21.262;2022-09-09T05:48:52;17.15;;;13.27;;
69890;SDS011;57170;43.964;21.262;2022-09-09T05:51:19;18.80;;;14.05;;
69890;SDS011;57170;43.964;21.262;2022-09-09T05:53:47;22.40;;;16.40;;
69890;SDS011;57170;43.964;21.262;2022-09-09T05:56:17;21.60;;;15.45;;
69890;SDS011;57170;43.964;21.262;2022-09-09T05:58:44;25.17;;;17.02;;
69890;SDS011;57170;43.964;21.262;2022-09-09T06:01:22;27.45;;;17.05;;
69890;SDS011;57170;43.964;21.262;2022-09-09T06:03:49;22.85;;;17.20;;
69890;SDS011;57170;43.964;21.262;2022-09-09T06:06:18;24.90;;;16.63;;
69890;SDS011;57170;43.964;21.262;2022-09-09T06:08:47;18.42;;;15.57;;
69890;SDS011;57170;43.964;21.262;2022-09-09T06:11:18;22.95;;;15.13;;
69890;SDS011;57170;43.964;21.262;2022-09-09T06:13:44;23.00;;;16.60;;
69890;SDS011;57170;43.964;21.262;2022-09-09T06:16:14;23.55;;;16.27;;
69890;SDS011;57170;43.964;21.262;2022-09-09T06:18:41;26.05;;;15.65;;
69890;SDS011;57170;43.964;21.262;2022-09-09T06:21:17;23.33;;;16.85;;
69890;SDS011;57170;43.964;21.262;2022-09-09T06:23:43;23.98;;;16.45;;
69890;SDS011;57170;43.964;21.262;2022-09-09T06:26:16;20.17;;;16.73;;
69890;SDS011;57170;43.964;21.262;2022-09-09T06:28:43;20.88;;;13.95;;
69890;SDS011;57170;43.964;21.262;2022-09-09T06:31:11;15.57;;;12.40;;
69890;SDS011;57170;43.964;21.262;2022-09-09T06:33:38;16.95;;;11.65;;
69890;SDS011;57170;43.964;21.262;2022-09-09T06:36:06;17.80;;;11.57;;
69890;SDS011;57170;43.964;21.262;2022-09-09T06:38:32;17.35;;;11.23;;
69890;SDS011;57170;43.964;21.262;2022-09-09T06:40:59;17.40;;;12.95;;
69890;SDS011;57170;43.964;21.262;2022-09-09T06:43:25;14.25;;;11.27;;
69890;SDS011;57170;43.964;21.262;2022-09-09T06:45:55;19.70;;;11.60;;
69890;SDS011;57170;43.964;21.262;2022-09-09T06:48:22;17.13;;;12.23;;
69890;SDS011;57170;43.964;21.262;2022-09-09T06:50:48;20.50;;;11.68;;
69890;SDS011;57170;43.964;21.262;2022-09-09T06:53:17;16.70;;;10.95;;
69890;SDS011;57170;43.964;21.262;2022-09-09T06:55:44;16.70;;;10.38;;
69890;SDS011;57170;43.964;21.262;2022-09-09T06:58:10;16.17;;;10.82;;
69890;SDS011;57170;43.964;21.262;2022-09-09T07:00:36;13.60;;;10.45;;
69890;SDS011;57170;43.964;21.262;2022-09-09T07:03:03;12.90;;;10.20;;
69890;SDS011;57170;43.964;21.262;2022-09-09T07:05:31;13.43;;;11.07;;
69890;SDS011;57170;43.964;21.262;2022-09-09T07:07:57;15.25;;;11.38;;
69890;SDS011;57170;43.964;21.262;2022-09-09T07:10:23;15.45;;;11.68;;
69890;SDS011;57170;43.964;21.262;2022-09-09T07:12:50;16.48;;;11.55;;
69890;SDS011;57170;43.964;21.262;2022-09-09T07:15:20;15.55;;;12.43;;
69890;SDS011;57170;43.964;21.262;2022-09-09T07:17:47;19.55;;;12.63;;
69890;SDS011;57170;43.964;21.262;2022-09-09T07:20:14;14.95;;;11.80;;
69890;SDS011;57170;43.964;21.262;2022-09-09T07:22:41;18.88;;;11.15;;
69890;SDS011;57170;43.964;21.262;2022-09-09T07:25:07;15.43;;;10.20;;
69890;SDS011;57170;43.964;21.262;2022-09-09T07:27:33;14.27;;;10.25;;
69890;SDS011;57170;43.964;21.262;2022-09-09T07:29:59;12.88;;;10.98;;
69890;SDS011;57170;43.964;21.262;2022-09-09T07:32:27;18.02;;;12.88;;
69890;SDS011;57170;43.964;21.262;2022-09-09T07:34:55;15.98;;;11.98;;
69890;SDS011;57170;43.964;21.262;2022-09-09T07:37:23;19.63;;;12.25;;
69890;SDS011;57170;43.964;21.262;2022-09-09T07:39:49;18.95;;;14.73;;
69890;SDS011;57170;43.964;21.262;2022-09-09T07:42:16;43.97;;;31.35;;
69890;SDS011;57170;43.964;21.262;2022-09-09T07:44:42;20.10;;;17.25;;
69890;SDS011;57170;43.964;21.262;2022-09-09T07:47:08;20.88;;;15.27;;
69890;SDS011;57170;43.964;21.262;2022-09-09T07:49:34;14.65;;;12.73;;
69890;SDS011;57170;43.964;21.262;2022-09-09T07:52:00;18.23;;;13.13;;
69890;SDS011;57170;43.964;21.262;2022-09-09T07:54:27;18.30;;;16.40;;
69890;SDS011;57170;43.964;21.262;2022-09-09T07:56:53;28.58;;;25.40;;
69890;SDS011;57170;43.964;21.262;2022-09-09T07:59:19;23.17;;;18.77;;
69890;SDS011;57170;43.964;21.262;2022-09-09T08:01:46;17.35;;;14.27;;
69890;SDS011;57170;43.964;21.262;2022-09-09T08:04:16;19.30;;;14.02;;
69890;SDS011;57170;43.964;21.262;2022-09-09T08:06:53;14.38;;;12.88;;
69890;SDS011;57170;43.964;21.262;2022-09-09T08:09:19;15.52;;;13.50;;
69890;SDS011;57170;43.964;21.262;2022-09-09T08:11:45;18.45;;;12.60;;
69890;SDS011;57170;43.964;21.262;2022-09-09T08:14:12;16.27;;;12.82;;
69890;SDS011;57170;43.964;21.262;2022-09-09T08:16:39;16.92;;;12.52;;
69890;SDS011;57170;43.964;21.262;2022-09-09T08:19:06;18.10;;;12.98;;
69890;SDS011;57170;43.964;21.262;2022-09-09T08:21:33;15.02;;;12.60;;
69890;SDS011;57170;43.964;21.262;2022-09-09T08:24:00;15.25;;;10.93;;
69890;SDS011;57170;43.964;21.262;2022-09-09T08:26:28;13.60;;;10.82;;
69890;SDS011;57170;43.964;21.262;2022-09-09T08:28:55;14.50;;;11.38;;
69890;SDS011;57170;43.964;21.262;2022-09-09T08:31:25;13.48;;;11.95;;
69890;SDS011;57170;43.964;21.262;2022-09-09T08:33:55;16.23;;;11.40;;
69890;SDS011;57170;43.964;21.262;2022-09-09T08:36:23;15.38;;;11.15;;
69890;SDS011;57170;43.964;21.262;2022-09-09T08:38:51;15.52;;;11.48;;
69890;SDS011;57170;43.964;21.262;2022-09-09T08:41:28;16.83;;;13.18;;
69890;SDS011;57170;43.964;21.262;2022-09-09T08:44:17;12.73;;;10.07;;
69890;SDS011;57170;43.964;21.262;2022-09-09T08:47:00;12.82;;;10.77;;
69890;SDS011;57170;43.964;21.262;2022-09-09T08:49:45;12.13;;;10.55;;
69890;SDS011;57170;43.964;21.262;2022-09-09T08:52:29;10.52;;;9.48;;
69890;SDS011;57170;43.964;21.262;2022-09-09T08:55:02;14.65;;;9.50;;
69890;SDS011;57170;43.964;21.262;2022-09-09T08:57:30;13.50;;;8.35;;
69890;SDS011;57170;43.964;21.262;2022-09-09T08:59:57;12.18;;;8.43;;
69890;SDS011;57170;43.964;21.262;2022-09-09T09:09:57;11.32;;;9.95;;
69890;SDS011;57170;43.964;21.262;2022-09-09T09:12:29;10.10;;;9.05;;
69890;SDS011;57170;43.964;21.262;2022-09-09T09:14:58;13.43;;;9.15;;
69890;SDS011;57170;43.964;21.262;2022-09-09T09:17:25;9.57;;;8.63;;
69890;SDS011;57170;43.964;21.262;2022-09-09T09:19:52;9.80;;;7.25;;
69890;SDS011;57170;43.964;21.262;2022-09-09T09:22:19;8.75;;;7.20;;
69890;SDS011;57170;43.964;21.262;2022-09-09T09:27:32;11.52;;;9.00;;
69890;SDS011;57170;43.964;21.262;2022-09-09T09:30:00;9.63;;;8.63;;
69890;SDS011;57170;43.964;21.262;2022-09-09T09:32:28;9.32;;;8.43;;
69890;SDS011;57170;43.964;21.262;2022-09-09T09:34:56;11.90;;;9.10;;
69890;SDS011;57170;43.964;21.262;2022-09-09T09:37:28;10.82;;;9.73;;
69890;SDS011;57170;43.964;21.262;2022-09-09T09:39:54;10.15;;;9.13;;
69890;SDS011;57170;43.964;21.262;2022-09-09T09:42:21;10.70;;;9.60;;
69890;SDS011;57170;43.964;21.262;2022-09-09T09:44:47;11.65;;;8.68;;
69890;SDS011;57170;43.964;21.262;2022-09-09T09:47:17;8.77;;;7.45;;
69890;SDS011;57170;43.964;21.262;2022-09-09T09:49:59;9.35;;;7.65;;
69890;SDS011;57170;43.964;21.262;2022-09-09T09:52:26;12.50;;;10.50;;
69890;SDS011;57170;43.964;21.262;2022-09-09T09:54:53;9.25;;;8.30;;
69890;SDS011;57170;43.964;21.262;2022-09-09T09:57:22;13.57;;;9.65;;
69890;SDS011;57170;43.964;21.262;2022-09-09T09:59:59;10.95;;;8.48;;
69890;SDS011;57170;43.964;21.262;2022-09-09T10:02:31;8.43;;;7.40;;
69890;SDS011;57170;43.964;21.262;2022-09-09T10:05:05;11.07;;;7.43;;
69890;SDS011;57170;43.964;21.262;2022-09-09T10:07:31;12.93;;;8.30;;
69890;SDS011;57170;43.964;21.262;2022-09-09T10:09:58;12.02;;;7.65;;
69890;SDS011;57170;43.964;21.262;2022-09-09T10:17:43;13.90;;;8.55;;
69890;SDS011;57170;43.964;21.262;2022-09-09T10:23:07;12.10;;;8.90;;
69890;SDS011;57170;43.964;21.262;2022-09-09T10:26:10;7.63;;;6.35;;
69890;SDS011;57170;43.964;21.262;2022-09-09T10:33:33;12.75;;;8.88;;
69890;SDS011;57170;43.964;21.262;2022-09-09T10:36:06;11.57;;;7.72;;
69890;SDS011;57170;43.964;21.262;2022-09-09T10:48:43;11.30;;;7.72;;
69890;SDS011;57170;43.964;21.262;2022-09-09T10:56:24;10.30;;;8.50;;
69890;SDS011;57170;43.964;21.262;2022-09-09T10:59:10;12.18;;;9.05;;
69890;SDS011;57170;43.964;21.262;2022-09-09T11:05:05;16.88;;;7.75;;
69890;SDS011;57170;43.964;21.262;2022-09-09T11:07:00;9.88;;;7.85;;
69890;SDS011;57170;43.964;21.262;2022-09-09T11:09:31;10.98;;;8.00;;
69890;SDS011;57170;43.964;21.262;2022-09-09T11:11:59;10.20;;;7.75;;
69890;SDS011;57170;43.964;21.262;2022-09-09T11:14:38;10.70;;;6.90;;
69890;SDS011;57170;43.964;21.262;2022-09-09T11:17:21;11.55;;;6.90;;
69890;SDS011;57170;43.964;21.262;2022-09-09T11:19:49;10.82;;;7.32;;
69890;SDS011;57170;43.964;21.262;2022-09-09T11:22:32;12.77;;;7.93;;
69890;SDS011;57170;43.964;21.262;2022-09-09T11:25:01;15.77;;;9.48;;
69890;SDS011;57170;43.964;21.262;2022-09-09T11:27:31;13.02;;;9.43;;
69890;SDS011;57170;43.964;21.262;2022-09-09T11:30:05;11.23;;;9.75;;
69890;SDS011;57170;43.964;21.262;2022-09-09T11:40:27;11.25;;;8.32;;
69890;SDS011;57170;43.964;21.262;2022-09-09T11:43:02;12.25;;;9.55;;
69890;SDS011;57170;43.964;21.262;2022-09-09T11:45:30;13.65;;;8.50;;
69890;SDS011;57170;43.964;21.262;2022-09-09T11:47:59;9.60;;;7.28;;
69890;SDS011;57170;43.964;21.262;2022-09-09T11:53:02;13.77;;;8.68;;
69890;SDS011;57170;43.964;21.262;2022-09-09T11:55:29;11.60;;;8.68;;
69890;SDS011;57170;43.964;21.262;2022-09-09T11:58:01;15.60;;;8.95;;
69890;SDS011;57170;43.964;21.262;2022-09-09T12:00:31;14.18;;;9.40;;
69890;SDS011;57170;43.964;21.262;2022-09-09T12:02:58;9.68;;;7.72;;
69890;SDS011;57170;43.964;21.262;2022-09-09T12:05:34;11.95;;;8.45;;
69890;SDS011;57170;43.964;21.262;2022-09-09T12:08:02;13.63;;;8.75;;
69890;SDS011;57170;43.964;21.262;2022-09-09T12:10:30;9.02;;;7.32;;
69890;SDS011;57170;43.964;21.262;2022-09-09T12:15:54;11.30;;;7.53;;
69890;SDS011;57170;43.964;21.262;2022-09-09T12:18:21;13.82;;;8.82;;
69890;SDS011;57170;43.964;21.262;2022-09-09T12:20:57;12.00;;;7.78;;
69890;SDS011;57170;43.964;21.262;2022-09-09T12:23:30;12.82;;;8.45;;
69890;SDS011;57170;43.964;21.262;2022-09-09T12:26:00;12.65;;;7.68;;
69890;SDS011;57170;43.964;21.262;2022-09-09T12:28:44;10.15;;;7.13;;
69890;SDS011;57170;43.964;21.262;2022-09-09T12:31:24;14.80;;;7.68;;
69890;SDS011;57170;43.964;21.262;2022-09-09T12:33:51;12.43;;;7.05;;
69890;SDS011;57170;43.964;21.262;2022-09-09T12:36:25;10.85;;;7.82;;
69890;SDS011;57170;43.964;21.262;2022-09-09T12:38:54;12.70;;;8.88;;
69890;SDS011;57170;43.964;21.262;2022-09-09T12:41:25;11.98;;;8.18;;
69890;SDS011;57170;43.964;21.262;2022-09-09T12:44:02;12.43;;;7.65;;
69890;SDS011;57170;43.964;21.262;2022-09-09T12:46:34;16.83;;;9.48;;
69890;SDS011;57170;43.964;21.262;2022-09-09T12:49:02;16.02;;;8.20;;
69890;SDS011;57170;43.964;21.262;2022-09-09T12:51:30;13.85;;;7.20;;
69890;SDS011;57170;43.964;21.262;2022-09-09T12:53:57;11.90;;;7.00;;
69890;SDS011;57170;43.964;21.262;2022-09-09T12:56:28;11.55;;;8.38;;
69890;SDS011;57170;43.964;21.262;2022-09-09T12:58:56;10.55;;;6.97;;
69890;SDS011;57170;43.964;21.262;2022-09-09T13:01:24;11.13;;;7.80;;
69890;SDS011;57170;43.964;21.262;2022-09-09T13:03:51;14.02;;;9.75;;
69890;SDS011;57170;43.964;21.262;2022-09-09T13:06:19;12.40;;;8.15;;
69890;SDS011;57170;43.964;21.262;2022-09-09T13:08:47;12.13;;;8.50;;
69890;SDS011;57170;43.964;21.262;2022-09-09T13:11:15;16.38;;;9.05;;
69890;SDS011;57170;43.964;21.262;2022-09-09T13:13:43;12.35;;;8.40;;
69890;SDS011;57170;43.964;21.262;2022-09-09T13:16:20;16.00;;;8.40;;
69890;SDS011;57170;43.964;21.262;2022-09-09T13:18:46;10.10;;;6.88;;
69890;SDS011;57170;43.964;21.262;2022-09-09T13:21:13;8.32;;;6.13;;
69890;SDS011;57170;43.964;21.262;2022-09-09T13:23:39;11.80;;;7.93;;
69890;SDS011;57170;43.964;21.262;2022-09-09T13:26:06;10.05;;;7.55;;
69890;SDS011;57170;43.964;21.262;2022-09-09T13:28:46;11.85;;;7.20;;
69890;SDS011;57170;43.964;21.262;2022-09-09T13:31:23;11.63;;;7.35;;
69890;SDS011;57170;43.964;21.262;2022-09-09T13:33:49;12.30;;;7.13;;
69890;SDS011;57170;43.964;21.262;2022-09-09T13:36:18;11.55;;;6.57;;
69890;SDS011;57170;43.964;21.262;2022-09-09T13:38:53;10.88;;;6.85;;
69890;SDS011;57170;43.964;21.262;2022-09-09T13:41:21;11.23;;;7.28;;
69890;SDS011;57170;43.964;21.262;2022-09-09T13:43:48;11.63;;;7.30;;
69890;SDS011;57170;43.964;21.262;2022-09-09T13:48:59;14.57;;;8.73;;
69890;SDS011;57170;43.964;21.262;2022-09-09T13:51:30;9.68;;;7.32;;
69890;SDS011;57170;43.964;21.262;2022-09-09T13:53:59;9.25;;;7.10;;
69890;SDS011;57170;43.964;21.262;2022-09-09T13:56:25;13.75;;;8.27;;
69890;SDS011;57170;43.964;21.262;2022-09-09T13:58:51;14.27;;;8.88;;
69890;SDS011;57170;43.964;21.262;2022-09-09T14:01:17;11.18;;;7.35;;
69890;SDS011;57170;43.964;21.262;2022-09-09T14:03:43;12.20;;;6.50;;
69890;SDS011;57170;43.964;21.262;2022-09-09T14:06:10;10.98;;;7.25;;
69890;SDS011;57170;43.964;21.262;2022-09-09T14:08:36;15.32;;;8.45;;
69890;SDS011;57170;43.964;21.262;2022-09-09T14:11:03;12.43;;;7.78;;
69890;SDS011;57170;43.964;21.262;2022-09-09T14:13:29;9.85;;;6.90;;
69890;SDS011;57170;43.964;21.262;2022-09-09T14:15:56;10.70;;;7.40;;
69890;SDS011;57170;43.964;21.262;2022-09-09T14:18:22;9.30;;;6.60;;
69890;SDS011;57170;43.964;21.262;2022-09-09T14:20:50;10.95;;;6.80;;
69890;SDS011;57170;43.964;21.262;2022-09-09T14:23:16;14.45;;;6.82;;
69890;SDS011;57170;43.964;21.262;2022-09-09T14:25:44;11.38;;;7.13;;
69890;SDS011;57170;43.964;21.262;2022-09-09T14:28:11;11.18;;;7.50;;
69890;SDS011;57170;43.964;21.262;2022-09-09T14:30:38;9.32;;;7.25;;
69890;SDS011;57170;43.964;21.262;2022-09-09T14:33:05;12.10;;;8.45;;
69890;SDS011;57170;43.964;21.262;2022-09-09T14:35:31;10.82;;;7.13;;
69890;SDS011;57170;43.964;21.262;2022-09-09T14:37:58;20.58;;;12.48;;
69890;SDS011;57170;43.964;21.262;2022-09-09T14:40:25;14.75;;;10.27;;
69890;SDS011;57170;43.964;21.262;2022-09-09T14:42:52;13.60;;;8.65;;
69890;SDS011;57170;43.964;21.262;2022-09-09T14:45:18;11.68;;;7.65;;
69890;SDS011;57170;43.964;21.262;2022-09-09T14:47:46;13.48;;;8.60;;
69890;SDS011;57170;43.964;21.262;2022-09-09T14:50:12;12.98;;;10.18;;
69890;SDS011;57170;43.964;21.262;2022-09-09T14:52:39;14.68;;;8.07;;
69890;SDS011;57170;43.964;21.262;2022-09-09T14:55:05;12.48;;;7.63;;
69890;SDS011;57170;43.964;21.262;2022-09-09T14:57:32;14.27;;;8.00;;
69890;SDS011;57170;43.964;21.262;2022-09-09T14:59:59;12.70;;;7.00;;
69890;SDS011;57170;43.964;21.262;2022-09-09T15:02:26;11.05;;;7.60;;
69890;SDS011;57170;43.964;21.262;2022-09-09T15:04:52;11.05;;;7.80;;
69890;SDS011;57170;43.964;21.262;2022-09-09T15:07:22;14.82;;;8.18;;
69890;SDS011;57170;43.964;21.262;2022-09-09T15:09:48;15.77;;;7.65;;
69890;SDS011;57170;43.964;21.262;2022-09-09T15:12:15;13.73;;;8.48;;
69890;SDS011;57170;43.964;21.262;2022-09-09T15:14:44;14.13;;;7.38;;
69890;SDS011;57170;43.964;21.262;2022-09-09T15:17:10;14.77;;;7.60;;
69890;SDS011;57170;43.964;21.262;2022-09-09T15:19:36;11.35;;;7.18;;
69890;SDS011;57170;43.964;21.262;2022-09-09T15:22:03;12.23;;;6.80;;
69890;SDS011;57170;43.964;21.262;2022-09-09T15:24:30;12.30;;;8.30;;
69890;SDS011;57170;43.964;21.262;2022-09-09T15:26:56;11.07;;;7.60;;
69890;SDS011;57170;43.964;21.262;2022-09-09T15:29:23;11.25;;;7.15;;
69890;SDS011;57170;43.964;21.262;2022-09-09T15:31:49;15.45;;;7.95;;
69890;SDS011;57170;43.964;21.262;2022-09-09T15:34:15;12.40;;;6.88;;
69890;SDS011;57170;43.964;21.262;2022-09-09T15:36:43;13.75;;;6.63;;
69890;SDS011;57170;43.964;21.262;2022-09-09T15:39:11;12.70;;;7.07;;
69890;SDS011;57170;43.964;21.262;2022-09-09T15:41:38;10.75;;;7.18;;
69890;SDS011;57170;43.964;21.262;2022-09-09T15:44:04;11.82;;;8.35;;
69890;SDS011;57170;43.964;21.262;2022-09-09T15:46:34;11.20;;;6.57;;
69890;SDS011;57170;43.964;21.262;2022-09-09T15:49:07;12.52;;;7.13;;
69890;SDS011;57170;43.964;21.262;2022-09-09T15:51:34;11.70;;;7.00;;
69890;SDS011;57170;43.964;21.262;2022-09-09T15:54:02;13.05;;;7.75;;
69890;SDS011;57170;43.964;21.262;2022-09-09T15:56:29;13.20;;;7.18;;
69890;SDS011;57170;43.964;21.262;2022-09-09T15:58:56;11.60;;;7.30;;
69890;SDS011;57170;43.964;21.262;2022-09-09T16:01:22;10.38;;;7.88;;
69890;SDS011;57170;43.964;21.262;2022-09-09T16:03:49;10.57;;;6.70;;